createdAt,value
2022-09-12T00:00:06.753Z,0.00
2022-09-12T00:15:09.032Z,0.00
2022-09-12T00:30:10.917Z,0.00
2022-09-12T00:45:12.997Z,0.00
2022-09-12T01:00:13.398Z,0.00
2022-09-12T01:15:14.788Z,0.00
2022-09-12T01:30:15.461Z,0.00
2022-09-12T01:45:16.279Z,0.00
2022-09-12T02:00:16.891Z,0.00
2022-09-12T02:15:17.060Z,0.00
2022-09-12T02:30:17.324Z,0.00
2022-09-12T02:45:17.492Z,0.00
2022-09-12T03:00:18.241Z,0.00
2022-09-12T03:15:18.971Z,0.00
2022-09-12T03:30:19.178Z,0.00
2022-09-12T03:45:19.863Z,0.00
2022-09-12T04:00:20.505Z,0.00
2022-09-12T04:15:21.176Z,0.00
2022-09-12T04:30:21.200Z,5.62
2022-09-12T04:45:21.987Z,16.88
2022-09-12T05:00:22.458Z,45.00
2022-09-12T05:15:23.649Z,78.75
2022-09-12T05:30:24.226Z,129.38
2022-09-12T05:45:24.984Z,168.75
2022-09-12T06:00:28.393Z,202.50
2022-09-12T06:15:31.619Z,236.25
2022-09-12T06:30:31.753Z,247.50
2022-09-12T06:45:31.802Z,264.38
2022-09-12T07:00:31.878Z,292.50
2022-09-12T07:15:31.987Z,309.38
2022-09-12T07:30:32.122Z,326.25
2022-09-12T07:45:32.696Z,348.75
2022-09-12T08:00:32.239Z,405.00
2022-09-12T08:15:32.622Z,568.12
2022-09-12T08:30:32.669Z,776.25
2022-09-12T08:45:32.756Z,1001.25
2022-09-12T09:00:32.867Z,1271.25
2022-09-12T09:15:33.097Z,1614.38
2022-09-12T09:30:34.323Z,1833.75
2022-09-12T09:45:36.229Z,2120.62
2022-09-12T10:00:36.874Z,2565.00
2022-09-12T10:15:38.318Z,2863.12
2022-09-12T10:30:38.554Z,708.75
2022-09-12T10:45:41.829Z,3420.00
2022-09-12T11:00:43.273Z,3594.38
2022-09-12T11:15:43.446Z,3436.88
2022-09-12T11:30:44.046Z,3459.38
2022-09-12T11:45:44.135Z,2874.38
2022-09-12T12:00:45.622Z,2835.00
2022-09-12T12:15:45.827Z,2677.50
2022-09-12T12:30:47.629Z,2458.12
2022-09-12T12:45:48.129Z,2469.38
2022-09-12T13:00:50.063Z,2278.12
2022-09-12T13:15:51.611Z,1771.88
2022-09-12T13:30:52.196Z,1276.88
2022-09-12T13:45:54.104Z,1642.50
2022-09-12T14:00:55.337Z,1226.25
2022-09-12T14:15:56.077Z,945.00
2022-09-12T14:30:56.236Z,770.62
2022-09-12T14:45:58.047Z,579.38
2022-09-12T15:00:58.925Z,416.25
2022-09-12T15:15:59.193Z,354.38
2022-09-12T15:30:59.172Z,292.50
2022-09-12T15:46:00.610Z,219.38
2022-09-12T16:01:01.897Z,174.38
2022-09-12T16:16:03.373Z,151.88
2022-09-12T16:31:06.488Z,129.38
2022-09-12T16:46:07.787Z,67.50
2022-09-12T17:01:07.845Z,39.38
2022-09-12T17:16:08.951Z,16.88
2022-09-12T17:31:09.518Z,5.62
2022-09-12T17:46:10.831Z,0.00
2022-09-12T18:01:10.846Z,0.00
2022-09-12T18:16:13.163Z,0.00
2022-09-12T18:31:13.277Z,0.00
2022-09-12T18:46:13.385Z,0.00
2022-09-12T19:01:15.407Z,0.00
2022-09-12T19:16:15.792Z,0.00
2022-09-12T19:31:16.003Z,0.00
2022-09-12T19:46:16.249Z,0.00
2022-09-12T20:01:17.468Z,0.00
2022-09-12T20:16:21.731Z,0.00
2022-09-12T20:31:24.607Z,0.00
2022-09-12T20:46:25.501Z,0.00
2022-09-12T21:01:27.157Z,0.00
2022-09-12T21:16:27.805Z,0.00
2022-09-12T21:31:29.148Z,0.00
2022-09-12T21:46:29.214Z,0.00
2022-09-12T22:01:30.728Z,0.00
2022-09-12T22:16:32.035Z,0.00
2022-09-12T22:31:33.677Z,0.00
2022-09-12T22:46:33.533Z,0.00
2022-09-12T23:01:34.950Z,0.00
2022-09-12T23:16:35.544Z,0.00
2022-09-12T23:31:37.076Z,0.00
2022-09-12T23:46:36.958Z,0.00
